Terminal Aerodrome Forecast
Issued by NWS

Home | Current Version | Previous Version | Text Only | Print | Product List | Glossary On
Versions: 1 2 3 4 5 6 7 8 9 10 11 12 13 14 15 16 17 18 19 20 21 22 23 24 25 26 27 28 29 30 31
000
FTUS45 KFGZ 182332
TAFPGA
TAF
KPGA 182332Z 1900/1924 VRB06KT P6SM SCT120 BKN150
      TEMPO 1900/1902 VRB10G20KT -SHRA BKN080
     FM190200 VRB05KT P6SM FEW150
     FM192000 33007KT P6SM SKC=

USA.gov is the U.S. government's official web portal to all federal, state and local government web resources and services.